createdAt,value
2018-02-10T00:00:03.028Z,0.62
2018-02-10T00:02:30.562Z,0.61
2018-02-10T00:04:58.101Z,0.72
2018-02-10T00:07:25.677Z,0.81
2018-02-10T00:09:53.236Z,0.64
2018-02-10T00:12:20.801Z,0.65
2018-02-10T00:14:48.326Z,0.59
2018-02-10T00:17:15.846Z,0.82
2018-02-10T00:19:43.371Z,0.70
2018-02-10T00:22:11.008Z,0.67
2018-02-10T00:24:38.527Z,0.62
2018-02-10T00:27:06.086Z,0.59
2018-02-10T00:29:33.616Z,0.41
2018-02-10T00:32:01.152Z,0.49
2018-02-10T00:34:28.691Z,0.45
2018-02-10T00:36:56.217Z,0.43
2018-02-10T00:39:23.756Z,0.34
2018-02-10T00:41:51.305Z,0.34
2018-02-10T00:44:18.856Z,0.37
2018-02-10T00:46:46.358Z,0.36
2018-02-10T00:49:13.886Z,0.33
2018-02-10T00:51:41.404Z,0.39
2018-02-10T00:54:09.021Z,0.42
2018-02-10T00:56:36.561Z,0.48
2018-02-10T00:59:04.091Z,0.52
2018-02-10T01:01:31.642Z,0.47
2018-02-10T01:03:59.165Z,0.47
2018-02-10T01:06:26.691Z,0.53
2018-02-10T01:08:54.221Z,0.60
2018-02-10T01:11:21.757Z,0.67
2018-02-10T01:13:49.297Z,0.86
2018-02-10T01:16:16.840Z,0.68
2018-02-10T01:18:44.366Z,0.68
2018-02-10T01:21:11.882Z,0.79
2018-02-10T01:23:39.407Z,0.82
2018-02-10T01:26:06.961Z,0.74
2018-02-10T01:28:34.513Z,0.55
2018-02-10T01:31:02.057Z,0.54
2018-02-10T01:33:29.603Z,0.73
2018-02-10T01:35:57.137Z,0.71
2018-02-10T01:38:24.691Z,0.81
2018-02-10T01:40:52.211Z,0.82
2018-02-10T01:43:19.947Z,0.90
2018-02-10T01:45:47.492Z,0.95
2018-02-10T01:48:15.043Z,0.85
2018-02-10T01:50:42.588Z,0.50
2018-02-10T01:53:10.096Z,0.47
2018-02-10T01:55:37.623Z,0.58
2018-02-10T01:58:05.184Z,0.66
2018-02-10T02:00:32.728Z,0.73
2018-02-10T02:03:00.263Z,0.92
2018-02-10T02:05:27.788Z,0.73
2018-02-10T02:07:55.326Z,0.82
2018-02-10T02:10:22.946Z,0.78
2018-02-10T02:12:50.467Z,0.84
2018-02-10T02:15:17.991Z,0.79
2018-02-10T02:17:45.577Z,0.68
2018-02-10T02:20:13.166Z,0.79
2018-02-10T02:22:40.759Z,0.72
2018-02-10T02:25:08.257Z,0.80
2018-02-10T02:27:35.771Z,0.66
2018-02-10T02:30:03.308Z,0.63
2018-02-10T02:32:30.831Z,0.46
2018-02-10T02:34:58.443Z,0.68
2018-02-10T02:37:25.962Z,0.91
2018-02-10T02:39:53.486Z,0.73
2018-02-10T02:42:21.073Z,0.47
2018-02-10T02:44:48.591Z,0.57
2018-02-10T02:47:16.146Z,0.67
2018-02-10T02:49:43.671Z,0.78
2018-02-10T02:52:11.243Z,0.87
2018-02-10T02:54:38.772Z,0.75
2018-02-10T02:57:06.310Z,0.59
2018-02-10T02:59:33.846Z,0.46
2018-02-10T03:02:01.385Z,0.59
2018-02-10T03:04:28.898Z,0.77
2018-02-10T03:06:56.403Z,0.86
2018-02-10T03:09:23.953Z,0.89
2018-02-10T03:11:51.481Z,0.69
2018-02-10T03:14:19.022Z,0.69
2018-02-10T03:16:46.526Z,0.78
2018-02-10T03:19:14.105Z,0.92
2018-02-10T03:21:41.760Z,0.72
2018-02-10T03:24:09.277Z,0.67
2018-02-10T03:26:36.805Z,0.70
2018-02-10T03:29:04.310Z,0.83
2018-02-10T03:31:31.816Z,0.91
2018-02-10T03:33:59.320Z,0.88
2018-02-10T03:36:26.843Z,0.98
2018-02-10T03:38:54.376Z,0.93
2018-02-10T03:41:21.905Z,0.57
2018-02-10T03:43:49.632Z,0.57
2018-02-10T03:46:17.158Z,0.69
2018-02-10T03:48:44.677Z,0.88
2018-02-10T03:51:12.191Z,1.03
2018-02-10T03:53:39.707Z,0.94
2018-02-10T03:56:07.265Z,1.00
2018-02-10T03:58:34.785Z,0.95
2018-02-10T04:01:02.332Z,0.84
2018-02-10T04:03:29.852Z,0.93
2018-02-10T04:05:57.518Z,0.81
2018-02-10T04:08:25.032Z,0.52
2018-02-10T04:10:52.567Z,0.59
2018-02-10T04:13:20.111Z,0.76
2018-02-10T04:15:47.630Z,0.69
2018-02-10T04:18:15.196Z,0.73
2018-02-10T04:20:42.732Z,0.86
2018-02-10T04:23:10.257Z,0.93
2018-02-10T04:25:37.807Z,0.83
2018-02-10T04:28:05.381Z,0.76
2018-02-10T04:30:32.900Z,0.84
2018-02-10T04:33:00.409Z,0.77
2018-02-10T04:35:27.956Z,0.81
2018-02-10T04:37:55.531Z,0.85
2018-02-10T04:40:23.066Z,0.85
2018-02-10T04:42:50.590Z,0.57
2018-02-10T04:45:18.113Z,0.44
2018-02-10T04:47:45.620Z,0.59
2018-02-10T04:50:13.183Z,0.73
2018-02-10T04:52:40.713Z,0.85
2018-02-10T04:55:08.226Z,0.74
2018-02-10T04:57:35.745Z,0.65
2018-02-10T05:00:03.274Z,0.61
2018-02-10T05:02:30.803Z,0.62
2018-02-10T05:04:58.322Z,0.68
2018-02-10T05:07:25.855Z,0.85
2018-02-10T05:09:53.387Z,0.93
2018-02-10T05:12:20.938Z,1.00
2018-02-10T05:14:48.453Z,0.65
2018-02-10T05:17:16.444Z,0.51
2018-02-10T05:19:44.082Z,0.52
2018-02-10T05:22:11.596Z,0.42
2018-02-10T05:24:39.108Z,0.38
2018-02-10T05:27:06.638Z,0.56
2018-02-10T05:29:34.153Z,0.62
2018-02-10T05:32:01.673Z,0.79
2018-02-10T05:34:29.228Z,0.84
2018-02-10T05:36:56.767Z,0.87
2018-02-10T05:39:24.867Z,0.85
2018-02-10T05:41:52.372Z,0.71
2018-02-10T05:44:19.912Z,0.75
2018-02-10T05:46:47.440Z,0.92
2018-02-10T05:49:14.998Z,0.89
2018-02-10T05:51:42.543Z,0.94
2018-02-10T05:54:10.061Z,0.96
2018-02-10T05:56:37.612Z,0.83
2018-02-10T05:59:05.136Z,0.76
2018-02-10T06:01:32.709Z,0.60
2018-02-10T06:04:00.232Z,0.57
2018-02-10T06:06:27.779Z,0.48
2018-02-10T06:08:55.326Z,0.40
2018-02-10T06:11:22.943Z,0.48
2018-02-10T06:13:50.486Z,0.56
2018-02-10T06:16:18.013Z,0.66
2018-02-10T06:18:45.543Z,0.89
2018-02-10T06:21:13.286Z,0.99
2018-02-10T06:23:40.809Z,1.00
2018-02-10T06:26:08.338Z,0.98
2018-02-10T06:28:35.853Z,0.93
2018-02-10T06:31:03.524Z,0.89
2018-02-10T06:33:31.038Z,0.89
2018-02-10T06:35:59.441Z,0.85
2018-02-10T06:38:26.979Z,0.57
2018-02-10T06:40:54.573Z,0.43
2018-02-10T06:43:22.127Z,0.33
2018-02-10T06:45:49.655Z,0.40
2018-02-10T06:48:17.209Z,0.49
2018-02-10T06:50:44.778Z,0.72
2018-02-10T06:53:12.293Z,0.82
2018-02-10T06:55:39.824Z,0.84
2018-02-10T06:58:07.360Z,0.88
2018-02-10T07:00:34.884Z,0.71
2018-02-10T07:03:02.399Z,0.48
2018-02-10T07:05:30.067Z,0.34
2018-02-10T07:07:57.592Z,0.53
2018-02-10T07:10:25.109Z,0.74
2018-02-10T07:12:52.627Z,0.70
2018-02-10T07:15:20.167Z,0.87
2018-02-10T07:17:47.734Z,0.94
2018-02-10T07:20:15.266Z,1.12
2018-02-10T07:22:42.782Z,1.05
2018-02-10T07:25:10.287Z,0.99
2018-02-10T07:27:37.819Z,1.11
2018-02-10T07:30:05.388Z,1.28
2018-02-10T07:32:32.916Z,1.40
2018-02-10T07:35:00.447Z,1.27
2018-02-10T07:37:27.964Z,1.32
2018-02-10T07:39:55.509Z,1.40
2018-02-10T07:42:23.023Z,1.37
2018-02-10T07:44:50.576Z,1.23
2018-02-10T07:47:18.128Z,1.18
2018-02-10T07:49:45.651Z,1.35
2018-02-10T07:52:13.192Z,1.56
2018-02-10T07:54:40.737Z,1.65
2018-02-10T07:57:08.262Z,1.80
2018-02-10T07:59:35.806Z,1.96
2018-02-10T08:02:03.348Z,2.04
2018-02-10T08:04:30.977Z,2.12
2018-02-10T08:06:58.543Z,2.19
2018-02-10T08:09:26.096Z,2.13
2018-02-10T08:11:53.701Z,1.86
2018-02-10T08:14:21.232Z,1.99
2018-02-10T08:16:48.782Z,1.90
2018-02-10T08:19:16.294Z,1.96
2018-02-10T08:21:43.848Z,2.14
2018-02-10T08:24:11.408Z,2.13
2018-02-10T08:26:38.934Z,1.87
2018-02-10T08:29:06.476Z,1.81
2018-02-10T08:31:34.038Z,1.76
2018-02-10T08:34:01.557Z,1.65
2018-02-10T08:36:29.096Z,1.68
2018-02-10T08:38:56.684Z,1.73
2018-02-10T08:41:24.212Z,1.80
2018-02-10T08:43:51.968Z,1.78
2018-02-10T08:46:19.501Z,1.86
2018-02-10T08:48:47.046Z,2.06
2018-02-10T08:51:14.586Z,2.30
2018-02-10T08:53:42.109Z,2.51
2018-02-10T08:56:09.678Z,2.53
2018-02-10T08:58:37.245Z,2.40
2018-02-10T09:01:04.764Z,2.29
2018-02-10T09:03:32.295Z,2.35
2018-02-10T09:05:59.826Z,2.31
2018-02-10T09:08:27.420Z,2.21
2018-02-10T09:10:54.942Z,2.12
2018-02-10T09:13:22.475Z,2.24
2018-02-10T09:15:50.608Z,2.26
2018-02-10T09:18:18.157Z,2.40
2018-02-10T09:20:45.702Z,2.56
2018-02-10T09:23:13.206Z,3.07
2018-02-10T09:25:40.757Z,3.22
2018-02-10T09:28:08.326Z,3.50
2018-02-10T09:30:35.977Z,3.62
2018-02-10T09:33:03.500Z,3.87
2018-02-10T09:35:31.044Z,4.13
2018-02-10T09:37:58.601Z,3.93
2018-02-10T09:40:26.163Z,3.41
2018-02-10T09:42:53.723Z,3.55
2018-02-10T09:45:21.393Z,3.06
2018-02-10T09:47:48.927Z,2.94
2018-02-10T09:50:16.473Z,3.26
2018-02-10T09:52:44.006Z,3.33
2018-02-10T09:55:11.543Z,3.28
2018-02-10T09:57:39.073Z,3.29
2018-02-10T10:00:06.614Z,3.09
2018-02-10T10:02:34.379Z,2.91
2018-02-10T10:05:01.897Z,3.23
2018-02-10T10:07:29.501Z,3.15
2018-02-10T10:09:57.022Z,3.19
2018-02-10T10:12:24.568Z,3.15
2018-02-10T10:14:52.123Z,3.29
2018-02-10T10:17:19.681Z,3.40
2018-02-10T10:19:47.263Z,3.57
2018-02-10T10:22:14.823Z,3.22
2018-02-10T10:24:42.472Z,3.64
2018-02-10T10:27:10.004Z,3.75
2018-02-10T10:29:37.613Z,3.49
2018-02-10T10:32:05.143Z,3.48
2018-02-10T10:34:32.694Z,3.64
2018-02-10T10:37:00.241Z,4.31
2018-02-10T10:39:27.834Z,3.96
2018-02-10T10:41:55.388Z,3.47
2018-02-10T10:44:22.932Z,3.19
2018-02-10T10:46:50.563Z,3.26
2018-02-10T10:49:18.114Z,3.45
2018-02-10T10:51:45.640Z,3.58
2018-02-10T10:54:13.213Z,3.73
2018-02-10T10:56:40.772Z,4.34
2018-02-10T10:59:08.593Z,4.47
2018-02-10T11:01:36.142Z,4.89
2018-02-10T11:04:03.676Z,4.08
2018-02-10T11:06:31.278Z,4.19
2018-02-10T11:08:58.889Z,4.24
2018-02-10T11:11:26.417Z,3.75
2018-02-10T11:13:53.968Z,4.08
2018-02-10T11:16:21.499Z,3.99
2018-02-10T11:18:49.039Z,4.08
2018-02-10T11:21:16.578Z,3.92
2018-02-10T11:23:44.257Z,4.03
2018-02-10T11:26:11.813Z,4.35
2018-02-10T11:28:39.334Z,4.60
2018-02-10T11:31:06.872Z,4.32
2018-02-10T11:33:34.430Z,4.84
2018-02-10T11:36:01.994Z,4.79
2018-02-10T11:38:29.539Z,4.33
2018-02-10T11:40:57.089Z,4.45
2018-02-10T11:43:24.652Z,4.14
2018-02-10T11:45:52.203Z,3.90
2018-02-10T11:48:19.723Z,3.75
2018-02-10T11:50:47.326Z,3.91
2018-02-10T11:53:15.094Z,3.67
2018-02-10T11:55:42.740Z,3.64
2018-02-10T11:58:10.294Z,3.62
2018-02-10T12:00:37.818Z,3.70
2018-02-10T12:03:05.347Z,3.71
2018-02-10T12:05:32.944Z,4.03
2018-02-10T12:08:00.484Z,4.05
2018-02-10T12:10:28.019Z,4.22
2018-02-10T12:12:55.642Z,4.36
2018-02-10T12:15:23.189Z,4.19
2018-02-10T12:17:50.727Z,3.70
2018-02-10T12:20:18.379Z,4.02
2018-02-10T12:22:45.912Z,3.97
2018-02-10T12:25:13.464Z,4.10
2018-02-10T12:27:41.002Z,3.81
2018-02-10T12:30:08.512Z,3.87
2018-02-10T12:32:36.065Z,3.90
2018-02-10T12:35:03.596Z,4.03
2018-02-10T12:37:31.122Z,4.01
2018-02-10T12:39:58.676Z,3.67
2018-02-10T12:42:26.593Z,3.59
2018-02-10T12:44:54.634Z,3.62
2018-02-10T12:47:22.384Z,4.05
2018-02-10T12:49:50.281Z,3.72
2018-02-10T12:52:18.004Z,3.79
2018-02-10T12:54:46.195Z,4.23
2018-02-10T12:57:13.712Z,4.17
2018-02-10T12:59:41.242Z,4.32
2018-02-10T13:02:09.783Z,4.56
2018-02-10T13:04:37.328Z,4.43
2018-02-10T13:07:04.895Z,4.09
2018-02-10T13:09:32.542Z,4.34
2018-02-10T13:12:00.274Z,4.32
2018-02-10T13:14:28.231Z,4.20
2018-02-10T13:16:55.797Z,4.17
2018-02-10T13:19:23.528Z,4.19
2018-02-10T13:21:51.282Z,3.85
2018-02-10T13:24:19.297Z,4.07
2018-02-10T13:26:47.056Z,4.29
2018-02-10T13:29:14.765Z,4.50
2018-02-10T13:31:42.322Z,4.47
2018-02-10T13:34:10.129Z,4.32
2018-02-10T13:36:37.681Z,4.40
2018-02-10T13:39:05.249Z,4.05
2018-02-10T13:41:33.902Z,3.96
2018-02-10T13:44:01.439Z,4.12
2018-02-10T13:46:28.969Z,3.82
2018-02-10T13:48:56.487Z,3.96
2018-02-10T13:51:24.027Z,3.80
2018-02-10T13:53:51.579Z,4.08
2018-02-10T13:56:19.218Z,3.75
2018-02-10T13:58:46.728Z,3.96
2018-02-10T14:01:14.303Z,3.80
2018-02-10T14:03:41.848Z,3.82
2018-02-10T14:06:09.365Z,3.83
2018-02-10T14:08:37.027Z,3.69
2018-02-10T14:11:04.568Z,4.06
2018-02-10T14:13:32.151Z,3.98
2018-02-10T14:15:59.672Z,3.77
2018-02-10T14:18:27.378Z,3.68
2018-02-10T14:20:54.923Z,3.73
2018-02-10T14:23:22.452Z,3.62
2018-02-10T14:25:50.892Z,3.50
2018-02-10T14:28:18.419Z,3.41
2018-02-10T14:30:45.964Z,3.55
2018-02-10T14:33:13.510Z,3.69
2018-02-10T14:35:41.046Z,3.69
2018-02-10T14:38:08.672Z,3.64
2018-02-10T14:40:36.183Z,3.53
2018-02-10T14:43:03.734Z,3.64
2018-02-10T14:45:31.281Z,3.70
2018-02-10T14:47:58.824Z,3.53
2018-02-10T14:50:26.359Z,3.57
2018-02-10T14:52:53.913Z,3.53
2018-02-10T14:55:21.531Z,3.70
2018-02-10T14:57:49.058Z,3.59
2018-02-10T15:00:16.592Z,3.71
2018-02-10T15:02:44.103Z,3.63
2018-02-10T15:05:11.697Z,3.41
2018-02-10T15:07:39.244Z,3.59
2018-02-10T15:10:06.962Z,3.75
2018-02-10T15:12:34.499Z,3.55
2018-02-10T15:15:02.364Z,3.54
2018-02-10T15:17:30.067Z,3.57
2018-02-10T15:19:57.738Z,3.57
2018-02-10T15:22:25.382Z,3.48
2018-02-10T15:24:53.141Z,3.55
2018-02-10T15:27:20.714Z,3.65
2018-02-10T15:30:00.129Z,3.44
2018-02-10T15:32:39.585Z,3.71
2018-02-10T15:35:07.109Z,3.64
2018-02-10T15:37:34.641Z,3.53
2018-02-10T15:40:02.288Z,3.49
2018-02-10T15:42:29.896Z,3.36
2018-02-10T15:44:57.431Z,3.51
2018-02-10T15:47:24.976Z,3.28
2018-02-10T15:49:52.488Z,3.26
2018-02-10T15:52:20.031Z,3.20
2018-02-10T15:54:47.621Z,3.25
2018-02-10T15:57:15.238Z,3.18
2018-02-10T15:59:42.835Z,3.23
2018-02-10T16:02:10.720Z,3.17
2018-02-10T16:04:38.259Z,3.06
2018-02-10T16:07:05.952Z,3.08
2018-02-10T16:09:33.538Z,3.09
2018-02-10T16:12:01.248Z,3.03
2018-02-10T16:14:29.220Z,3.09
2018-02-10T16:16:57.117Z,3.13
2018-02-10T16:19:24.893Z,3.22
2018-02-10T16:21:52.615Z,3.26
2018-02-10T16:24:20.632Z,3.22
2018-02-10T16:26:48.619Z,3.37
2018-02-10T16:29:16.453Z,3.26
2018-02-10T16:31:44.328Z,3.31
2018-02-10T16:34:12.258Z,3.43
2018-02-10T16:36:40.143Z,3.40
2018-02-10T16:39:08.216Z,3.40
2018-02-10T16:41:35.930Z,2.97
2018-02-10T16:44:03.675Z,2.92
2018-02-10T16:46:31.387Z,3.08
2018-02-10T16:48:59.247Z,3.17
2018-02-10T16:51:26.799Z,2.91
2018-02-10T16:53:54.450Z,2.81
2018-02-10T16:56:22.042Z,2.74
2018-02-10T16:58:49.584Z,2.67
2018-02-10T17:01:17.123Z,2.52
2018-02-10T17:03:44.752Z,2.91
2018-02-10T17:06:12.287Z,2.70
2018-02-10T17:08:39.811Z,2.46
2018-02-10T17:11:07.457Z,2.26
2018-02-10T17:13:35.243Z,2.37
2018-02-10T17:16:03.178Z,2.44
2018-02-10T17:18:30.883Z,2.54
2018-02-10T17:20:58.510Z,2.55
2018-02-10T17:23:26.563Z,2.49
2018-02-10T17:25:54.113Z,2.30
2018-02-10T17:28:21.654Z,2.16
2018-02-10T17:30:49.797Z,2.07
2018-02-10T17:33:17.347Z,2.18
2018-02-10T17:35:44.892Z,2.21
2018-02-10T17:38:12.458Z,2.09
2018-02-10T17:40:40.049Z,2.04
2018-02-10T17:43:07.701Z,2.11
2018-02-10T17:45:35.459Z,2.11
2018-02-10T17:48:02.977Z,2.00
2018-02-10T17:50:30.528Z,2.26
2018-02-10T17:52:58.067Z,2.11
2018-02-10T17:55:25.641Z,2.15
2018-02-10T17:57:53.188Z,2.24
2018-02-10T18:00:20.984Z,2.36
2018-02-10T18:02:48.529Z,2.28
2018-02-10T18:05:16.073Z,2.13
2018-02-10T18:07:43.690Z,2.22
2018-02-10T18:10:11.323Z,2.20
2018-02-10T18:12:38.903Z,2.21
2018-02-10T18:15:06.479Z,2.21
2018-02-10T18:17:34.004Z,2.19
2018-02-10T18:20:01.556Z,2.17
2018-02-10T18:22:29.124Z,2.52
2018-02-10T18:24:56.660Z,2.40
2018-02-10T18:27:24.614Z,2.30
2018-02-10T18:29:52.214Z,2.26
2018-02-10T18:32:19.880Z,2.26
2018-02-10T18:34:47.435Z,2.22
2018-02-10T18:37:15.028Z,2.24
2018-02-10T18:39:42.609Z,2.21
2018-02-10T18:42:10.921Z,2.16
2018-02-10T18:44:38.476Z,2.18
2018-02-10T18:47:06.071Z,2.25
2018-02-10T18:49:33.598Z,2.26
2018-02-10T18:52:01.139Z,2.28
2018-02-10T18:54:28.747Z,2.29
2018-02-10T18:56:56.334Z,2.26
2018-02-10T18:59:24.205Z,2.26
2018-02-10T19:01:51.726Z,2.23
2018-02-10T19:04:19.363Z,2.22
2018-02-10T19:06:47.024Z,2.28
2018-02-10T19:09:14.600Z,2.34
2018-02-10T19:11:42.138Z,2.33
2018-02-10T19:14:09.714Z,2.19
2018-02-10T19:16:37.244Z,2.16
2018-02-10T19:19:05.277Z,2.13
2018-02-10T19:21:32.810Z,2.37
2018-02-10T19:24:00.355Z,2.44
2018-02-10T19:26:27.914Z,2.22
2018-02-10T19:28:55.622Z,2.20
2018-02-10T19:31:23.155Z,2.13
2018-02-10T19:33:50.678Z,2.07
2018-02-10T19:36:18.218Z,1.97
2018-02-10T19:38:45.782Z,1.93
2018-02-10T19:41:13.304Z,1.89
2018-02-10T19:43:40.848Z,2.09
2018-02-10T19:46:08.420Z,2.12
2018-02-10T19:48:35.954Z,2.18
2018-02-10T19:51:03.506Z,2.25
2018-02-10T19:53:31.040Z,2.00
2018-02-10T19:55:58.588Z,1.92
2018-02-10T19:58:26.122Z,2.22
2018-02-10T20:00:53.752Z,2.19
2018-02-10T20:03:21.294Z,2.19
2018-02-10T20:05:49.061Z,2.35
2018-02-10T20:08:16.614Z,2.23
2018-02-10T20:10:44.163Z,2.26
2018-02-10T20:13:11.731Z,2.33
2018-02-10T20:15:39.277Z,2.30
2018-02-10T20:18:06.840Z,2.23
2018-02-10T20:20:34.403Z,2.07
2018-02-10T20:23:01.932Z,1.90
2018-02-10T20:25:29.462Z,1.85
2018-02-10T20:27:57.097Z,1.84
2018-02-10T20:30:24.662Z,1.83
2018-02-10T20:32:52.206Z,1.83
2018-02-10T20:35:20.041Z,1.91
2018-02-10T20:37:47.587Z,1.81
2018-02-10T20:40:15.221Z,1.81
2018-02-10T20:42:42.752Z,1.67
2018-02-10T20:45:10.273Z,1.74
2018-02-10T20:47:37.797Z,1.74
2018-02-10T20:50:05.361Z,1.85
2018-02-10T20:52:32.996Z,1.86
2018-02-10T20:55:00.545Z,1.81
2018-02-10T20:57:28.148Z,1.76
2018-02-10T20:59:55.705Z,1.88
2018-02-10T21:02:23.262Z,1.96
2018-02-10T21:04:50.793Z,1.90
2018-02-10T21:07:18.315Z,1.85
2018-02-10T21:09:45.881Z,1.95
2018-02-10T21:12:13.581Z,1.89
2018-02-10T21:14:41.140Z,1.89
2018-02-10T21:17:08.679Z,1.96
2018-02-10T21:19:36.229Z,1.97
2018-02-10T21:22:03.768Z,1.90
2018-02-10T21:24:31.297Z,2.00
2018-02-10T21:26:59.083Z,1.96
2018-02-10T21:29:26.669Z,1.92
2018-02-10T21:31:54.207Z,1.89
2018-02-10T21:34:21.756Z,1.92
2018-02-10T21:36:49.268Z,1.85
2018-02-10T21:39:16.792Z,1.83
2018-02-10T21:41:44.333Z,1.90
2018-02-10T21:44:11.874Z,1.93
2018-02-10T21:46:39.407Z,1.96
2018-02-10T21:49:06.959Z,2.09
2018-02-10T21:51:34.502Z,2.03
2018-02-10T21:54:02.033Z,1.89
2018-02-10T21:56:29.622Z,1.90
2018-02-10T21:58:57.136Z,1.96
2018-02-10T22:01:24.657Z,1.89
2018-02-10T22:03:52.165Z,1.99
2018-02-10T22:06:19.686Z,2.00
2018-02-10T22:08:47.206Z,1.90
2018-02-10T22:11:14.724Z,1.94
2018-02-10T22:13:42.255Z,2.11
2018-02-10T22:16:09.839Z,2.24
2018-02-10T22:18:37.373Z,2.06
2018-02-10T22:21:04.903Z,2.04
2018-02-10T22:23:32.431Z,2.04
2018-02-10T22:25:59.959Z,1.93
2018-02-10T22:28:27.493Z,1.96
2018-02-10T22:30:55.024Z,1.89
2018-02-10T22:33:22.568Z,1.78
2018-02-10T22:35:50.181Z,1.74
2018-02-10T22:38:17.715Z,1.87
2018-02-10T22:40:45.247Z,1.85
2018-02-10T22:43:12.792Z,1.89
2018-02-10T22:45:40.363Z,1.86
2018-02-10T22:48:07.900Z,1.67
2018-02-10T22:50:35.437Z,1.74
2018-02-10T22:53:02.952Z,1.75
2018-02-10T22:55:30.605Z,1.60
2018-02-10T22:57:58.126Z,1.60
2018-02-10T23:00:25.659Z,1.56
2018-02-10T23:02:53.384Z,1.72
2018-02-10T23:05:20.924Z,1.75
2018-02-10T23:07:48.469Z,1.73
2018-02-10T23:10:16.066Z,1.71
2018-02-10T23:12:43.583Z,1.77
2018-02-10T23:15:11.141Z,1.70
2018-02-10T23:17:38.682Z,1.75
2018-02-10T23:20:06.239Z,1.79
2018-02-10T23:22:33.779Z,1.75
2018-02-10T23:25:01.317Z,1.85
2018-02-10T23:27:28.863Z,1.84
2018-02-10T23:29:56.387Z,2.00
2018-02-10T23:32:23.929Z,1.95
2018-02-10T23:34:51.486Z,2.05
2018-02-10T23:37:19.029Z,2.14
2018-02-10T23:39:46.548Z,2.06
2018-02-10T23:42:14.085Z,2.00
2018-02-10T23:44:41.604Z,2.09
2018-02-10T23:47:09.148Z,2.14
2018-02-10T23:49:36.684Z,2.15
2018-02-10T23:52:04.223Z,2.13
2018-02-10T23:54:31.740Z,2.07
2018-02-10T23:56:59.252Z,2.03
2018-02-10T23:59:26.793Z,1.99
